15NH weather

Public forecast

Using degrees Fahrenheit for public forecast. Weather courtesy of forecast.io.

Closest aviation weather report (METAR) to Nashua Technology Park Heliport

Closest report is Boire Field, 5.1 nm (9.4 km) NNW. Retrieved 2020/08/09 13:56 UTC (26 minutes ago):

KASH 091356Z VRB03KT 10SM CLR 27/22 A3009 RMK AO2 SLP192 T02720222

Closest aviation forecast (TAF) to Nashua Technology Park Heliport

Closest forecast is Manchester-Boston Regional Airport, 13.5 nm (25.0 km) N. Retrieved 2020/08/09 12:24 UTC (2 hours ago):

TAF KMHT 091121Z 0912/1012 21004KT P6SM SCT100 FM091600 23007KT P6SM BKN100 FM100000 19005KT P6SM BKN100